Time;durP1;ratioP1;P1;durP2;ratioP2;P2;SDS_P1;SDS_P2;PMS_P1;PMS_P2;Temp;Humidity;BMP_temperature;BMP_pressure;BME280_temperature;BME280_humidity;BME280_pressure;Samples;Min_cycle;Max_cycle;Signal;HPM_P1;HPM_P2
2020/12/19 00:01:10;;;;;;;33.23;19.48;;;;;;;1.43;100.00;100364.66;1758264;81;21206;-70
2020/12/19 00:03:37;;;;;;;32.85;19.70;;;;;;;1.45;100.00;100368.87;1733836;81;21157;-69
2020/12/19 00:06:07;;;;;;;31.62;16.52;;;;;;;1.45;100.00;100368.87;1753778;81;21175;-69
2020/12/19 00:08:35;;;;;;;33.18;18.95;;;;;;;1.35;100.00;100372.37;1753159;81;21238;-69
2020/12/19 00:11:06;;;;;;;36.88;19.75;;;;;;;1.24;100.00;100370.73;1734237;81;21316;-69
2020/12/19 00:13:34;;;;;;;35.58;20.43;;;;;;;1.16;100.00;100375.00;1763905;81;21580;-70
2020/12/19 00:16:02;;;;;;;36.38;20.40;;;;;;;1.11;100.00;100369.63;1760037;81;21175;-70
2020/12/19 00:18:29;;;;;;;36.45;20.57;;;;;;;1.14;100.00;100369.45;1753003;81;21175;-70
2020/12/19 00:20:57;;;;;;;39.83;21.37;;;;;;;1.16;100.00;100372.41;1727458;81;21162;-69
2020/12/19 00:23:26;;;;;;;37.50;20.70;;;;;;;1.18;100.00;100373.64;1687228;84;21610;-69
2020/12/19 00:25:53;;;;;;;38.40;20.77;;;;;;;1.19;100.00;100368.80;1732865;81;21225;-69
2020/12/19 00:28:21;;;;;;;37.95;20.80;;;;;;;1.22;100.00;100369.97;1763367;80;21194;-70
2020/12/19 00:30:49;;;;;;;34.05;19.73;;;;;;;1.26;100.00;100371.97;1761296;81;21183;-69
2020/12/19 00:33:16;;;;;;;37.93;20.68;;;;;;;1.29;100.00;100368.77;1760905;81;21167;-69
2020/12/19 00:35:44;;;;;;;38.90;20.92;;;;;;;1.31;100.00;100370.84;1750959;81;21170;-69
2020/12/19 00:38:11;;;;;;;34.95;19.40;;;;;;;1.34;100.00;100376.36;1762229;81;21158;-70
2020/12/19 00:40:42;;;;;;;38.45;21.37;;;;;;;1.34;100.00;100375.89;1752878;81;21201;-70
2020/12/19 00:43:09;;;;;;;36.75;20.37;;;;;;;1.34;100.00;100377.19;1758078;81;21297;-69
2020/12/19 00:45:37;;;;;;;34.73;18.67;;;;;;;1.36;100.00;100379.27;1708384;83;21253;-69
2020/12/19 00:48:04;;;;;;;38.50;20.92;;;;;;;1.42;100.00;100370.34;1751211;81;21765;-70
2020/12/19 00:50:32;;;;;;;38.08;20.85;;;;;;;1.50;100.00;100371.27;1749323;81;21167;-69
2020/12/19 00:52:59;;;;;;;34.65;19.40;;;;;;;1.54;100.00;100370.20;1762909;81;21167;-69
2020/12/19 00:55:27;;;;;;;36.08;19.95;;;;;;;1.56;100.00;100365.76;1757552;81;21286;-70
2020/12/19 00:57:55;;;;;;;34.33;19.32;;;;;;;1.58;100.00;100365.22;1754665;81;21603;-69
2020/12/19 01:00:22;;;;;;;36.20;19.57;;;;;;;1.58;100.00;100371.73;1763050;81;21639;-69
2020/12/19 01:02:50;;;;;;;32.53;18.07;;;;;;;1.59;100.00;100374.74;1728304;81;21182;-69
2020/12/19 01:05:18;;;;;;;31.95;19.30;;;;;;;1.62;100.00;100375.87;1728991;81;21159;-70
2020/12/19 01:07:46;;;;;;;32.85;18.70;;;;;;;1.66;100.00;100375.28;1749141;81;21301;-69
2020/12/19 01:10:13;;;;;;;35.05;19.52;;;;;;;1.69;100.00;100375.14;1727796;81;21131;-70
2020/12/19 01:12:41;;;;;;;31.02;17.52;;;;;;;1.71;100.00;100366.78;1707749;83;21312;-69
2020/12/19 01:15:08;;;;;;;31.50;19.10;;;;;;;1.75;100.00;100368.31;1701723;83;21165;-70
2020/12/19 01:17:39;;;;;;;32.00;19.35;;;;;;;1.75;100.00;100367.84;1721754;83;21651;-69
2020/12/19 01:20:07;;;;;;;32.93;18.60;;;;;;;1.70;100.00;100368.55;1723895;83;21356;-70
2020/12/19 01:22:35;;;;;;;33.23;18.98;;;;;;;1.67;100.00;100376.98;1755410;81;21265;-69
2020/12/19 01:25:03;;;;;;;28.95;17.70;;;;;;;1.68;100.00;100375.61;1761446;81;21595;-69
2020/12/19 01:27:31;;;;;;;31.95;17.65;;;;;;;1.71;100.00;100375.44;1764014;81;21234;-69
2020/12/19 01:29:59;;;;;;;30.40;17.77;;;;;;;1.70;100.00;100371.16;1762535;81;21186;-69
2020/12/19 01:32:27;;;;;;;30.17;16.87;;;;;;;1.67;100.00;100374.38;1760930;81;21143;-69
2020/12/19 01:34:54;;;;;;;30.32;17.15;;;;;;;1.66;100.00;100380.02;1757849;81;21167;-70
2020/12/19 01:37:23;;;;;;;30.55;17.95;;;;;;;1.66;100.00;100377.88;1719899;83;21186;-69
2020/12/19 01:39:52;;;;;;;29.32;16.65;;;;;;;1.67;100.00;100386.94;1724938;83;21158;-69
2020/12/19 01:42:20;;;;;;;30.85;16.37;;;;;;;1.69;100.00;100382.49;1720978;83;21186;-69
2020/12/19 01:44:47;;;;;;;28.50;16.65;;;;;;;1.73;100.00;100381.42;1720918;83;21635;-69
2020/12/19 01:47:15;;;;;;;26.90;16.75;;;;;;;1.77;100.00;100378.67;1716260;83;21190;-69
2020/12/19 01:49:45;;;;;;;29.35;16.87;;;;;;;1.80;100.00;100374.62;1723938;83;21595;-69
2020/12/19 01:52:13;;;;;;;28.40;16.85;;;;;;;1.83;100.00;100377.89;1716251;83;21198;-69
2020/12/19 01:54:40;;;;;;;27.30;16.77;;;;;;;1.86;99.97;100379.53;1730795;81;21135;-69
2020/12/19 01:57:07;;;;;;;24.82;14.87;;;;;;;1.85;99.38;100381.30;1749200;81;21585;-69
2020/12/19 01:59:35;;;;;;;26.90;15.55;;;;;;;1.83;99.08;100383.11;1751200;81;21305;-69
2020/12/19 02:02:06;;;;;;;27.58;15.50;;;;;;;1.82;99.26;100381.44;1733652;81;21142;-69
2020/12/19 02:04:34;;;;;;;24.18;14.80;;;;;;;1.85;99.36;100386.95;1764608;81;21151;-69
2020/12/19 02:07:04;;;;;;;28.17;16.30;;;;;;;1.86;99.29;100388.66;1763363;81;21560;-69
2020/12/19 02:09:38;;;;;;;26.23;16.65;;;;;;;1.87;99.37;100383.37;1762751;81;21175;-69
2020/12/19 02:12:08;;;;;;;27.20;15.90;;;;;;;1.90;99.29;100390.19;1761720;81;21176;-69
2020/12/19 02:14:37;;;;;;;24.40;14.87;;;;;;;1.92;99.01;100379.22;1755656;81;21305;-69
2020/12/19 02:17:08;;;;;;;24.40;13.83;;;;;;;1.94;98.54;100376.94;1760303;81;21185;-69
2020/12/19 02:19:37;;;;;;;25.57;15.20;;;;;;;1.93;98.13;100380.92;1752423;81;21174;-69
2020/12/19 02:22:06;;;;;;;25.65;15.78;;;;;;;1.92;98.43;100376.61;1758198;81;21167;-69
2020/12/19 02:24:35;;;;;;;23.60;15.05;;;;;;;1.91;98.58;100374.94;1728626;81;21151;-69
2020/12/19 02:27:03;;;;;;;25.52;15.25;;;;;;;1.91;98.45;100376.24;1758757;81;21174;-69
2020/12/19 02:29:31;;;;;;;24.05;15.18;;;;;;;1.89;98.17;100380.66;1753959;81;21483;-69
2020/12/19 02:32:01;;;;;;;26.00;14.53;;;;;;;1.87;98.46;100372.07;1755116;81;21175;-69
2020/12/19 02:34:28;;;;;;;23.47;14.73;;;;;;;1.88;98.57;100373.77;1714166;83;21594;-70
2020/12/19 02:36:56;;;;;;;25.82;15.30;;;;;;;1.92;98.50;100372.70;1722819;83;21150;-69
2020/12/19 02:39:24;;;;;;;26.07;15.80;;;;;;;1.95;98.52;100375.16;1749129;81;21592;-69
2020/12/19 02:41:52;;;;;;;24.23;15.13;;;;;;;1.96;98.35;100376.83;1755188;81;21301;-69
2020/12/19 02:44:21;;;;;;;26.12;14.98;;;;;;;1.97;98.11;100381.61;1761530;81;21140;-69
2020/12/19 02:46:49;;;;;;;27.22;16.30;;;;;;;1.96;97.87;100382.05;1759810;81;21206;-69
2020/12/19 02:49:18;;;;;;;25.10;15.80;;;;;;;1.93;97.79;100384.83;1732416;81;21587;-70
2020/12/19 02:51:45;;;;;;;24.25;15.15;;;;;;;1.93;98.04;100379.14;1758181;81;21147;-70
2020/12/19 02:54:13;;;;;;;23.25;14.30;;;;;;;1.96;98.07;100381.22;1763290;81;21186;-70
2020/12/19 02:56:41;;;;;;;23.22;14.87;;;;;;;1.95;97.42;100384.30;1761392;81;21154;-69
2020/12/19 02:59:09;;;;;;;23.45;15.05;;;;;;;1.84;97.71;100386.12;1756356;81;21391;-70
2020/12/19 03:01:39;;;;;;;25.65;15.25;;;;;;;1.81;98.28;100378.90;1760137;81;21237;-69
2020/12/19 03:04:07;;;;;;;27.42;15.30;;;;;;;1.80;98.38;100381.98;1758226;81;21179;-69
2020/12/19 03:06:35;;;;;;;22.80;14.87;;;;;;;1.80;98.57;100385.05;1751625;81;21167;-69
2020/12/19 03:09:04;;;;;;;24.65;15.30;;;;;;;1.82;98.36;100384.52;1732895;81;21276;-69
2020/12/19 03:11:32;;;;;;;28.85;15.75;;;;;;;1.79;98.24;100379.44;1758537;81;21627;-69
2020/12/19 03:14:00;;;;;;;26.02;15.38;;;;;;;1.79;98.81;100385.49;1722823;83;21170;-69
2020/12/19 03:16:27;;;;;;;25.95;16.05;;;;;;;1.82;98.93;100387.13;1716214;82;21261;-69
2020/12/19 03:18:55;;;;;;;24.40;14.93;;;;;;;1.80;98.78;100380.67;1716265;83;21588;-69
2020/12/19 03:21:22;;;;;;;26.73;14.98;;;;;;;1.83;98.71;100379.20;1758608;81;21336;-69
2020/12/19 03:23:50;;;;;;;27.90;15.18;;;;;;;1.82;98.43;100379.30;1758805;81;21642;-69
2020/12/19 03:26:18;;;;;;;23.60;15.13;;;;;;;1.80;98.37;100378.53;1763128;81;21179;-70
2020/12/19 03:28:46;;;;;;;23.02;14.47;;;;;;;1.81;98.58;100373.69;1755450;81;21745;-69
2020/12/19 03:31:14;;;;;;;24.12;15.00;;;;;;;1.84;98.64;100369.63;1752705;81;21320;-69
2020/12/19 03:33:42;;;;;;;29.18;15.25;;;;;;;1.84;98.70;100363.95;1759584;81;21167;-69
2020/12/19 03:36:09;;;;;;;24.92;15.43;;;;;;;1.85;99.03;100359.13;1762078;81;21599;-69
2020/12/19 03:38:36;;;;;;;28.67;16.42;;;;;;;1.85;98.57;100360.88;1762243;81;21191;-70
2020/12/19 03:41:05;;;;;;;28.67;16.75;;;;;;;1.80;98.56;100363.72;1750919;81;21163;-70
2020/12/19 03:43:33;;;;;;;27.52;15.63;;;;;;;1.81;99.11;100373.69;1695309;83;21177;-69
2020/12/19 03:46:01;;;;;;;25.90;15.85;;;;;;;1.84;98.86;100378.30;1718534;83;21150;-70
2020/12/19 03:48:29;;;;;;;25.57;15.40;;;;;;;1.87;98.93;100383.80;1729663;81;21148;-69
2020/12/19 03:50:57;;;;;;;28.05;16.30;;;;;;;1.88;98.65;100382.44;1757483;81;21167;-69
2020/12/19 03:53:24;;;;;;;27.70;15.80;;;;;;;1.81;98.35;100384.95;1749719;81;21176;-69
2020/12/19 03:55:51;;;;;;;27.02;15.98;;;;;;;1.71;99.03;100388.94;1717266;83;21752;-69
2020/12/19 03:58:19;;;;;;;27.60;17.00;;;;;;;1.69;99.39;100389.48;1723915;83;21281;-69
2020/12/19 04:00:47;;;;;;;29.40;16.20;;;;;;;1.69;99.66;100391.62;1702079;83;21637;-70
2020/12/19 04:03:14;;;;;;;26.82;15.68;;;;;;;1.75;99.77;100391.78;1753524;81;21167;-69
2020/12/19 04:05:42;;;;;;;28.17;15.65;;;;;;;1.75;99.42;100388.70;1751039;81;21199;-69
2020/12/19 04:08:10;;;;;;;27.85;16.40;;;;;;;1.73;99.71;100393.16;1707481;83;21634;-70
2020/12/19 04:10:37;;;;;;;25.08;15.00;;;;;;;1.71;100.00;100391.08;1749201;81;21587;-70
2020/12/19 04:13:05;;;;;;;28.62;17.15;;;;;;;1.76;100.00;100389.57;1727497;81;21306;-70
2020/12/19 04:15:32;;;;;;;27.50;15.23;;;;;;;1.78;100.00;100381.65;1709489;83;21177;-69
2020/12/19 04:18:00;;;;;;;27.48;16.25;;;;;;;1.79;100.00;100387.27;1726619;83;21157;-69
2020/12/19 04:20:27;;;;;;;26.97;15.90;;;;;;;1.83;100.00;100383.11;1727666;83;21170;-69
2020/12/19 04:22:55;;;;;;;25.52;16.27;;;;;;;1.86;99.92;100384.75;1717193;83;21308;-69
2020/12/19 04:25:22;;;;;;;29.07;16.25;;;;;;;1.87;100.00;100391.63;1730472;81;21168;-69
2020/12/19 04:27:50;;;;;;;25.88;15.28;;;;;;;1.88;100.00;100381.59;1760762;81;21575;-70
2020/12/19 04:30:18;;;;;;;28.87;15.53;;;;;;;1.88;100.00;100382.91;1762995;81;21171;-69
2020/12/19 04:32:45;;;;;;;26.50;14.80;;;;;;;1.87;99.81;100379.89;1753429;81;21600;-69
2020/12/19 04:35:15;;;;;;;25.75;15.15;;;;;;;1.87;99.71;100383.37;1754298;81;21135;-69
2020/12/19 04:37:43;;;;;;;25.08;14.75;;;;;;;1.90;99.75;100384.97;1756673;81;21726;-69
2020/12/19 04:40:11;;;;;;;28.30;16.15;;;;;;;1.90;99.97;100387.58;1730718;81;21616;-69
2020/12/19 04:42:40;;;;;;;24.57;16.00;;;;;;;1.89;100.00;100382.83;1712813;83;21611;-69
2020/12/19 04:45:08;;;;;;;27.85;16.40;;;;;;;1.92;100.00;100383.13;1731745;81;21614;-70
2020/12/19 04:47:36;;;;;;;29.15;16.87;;;;;;;1.94;100.00;100387.81;1760278;81;21191;-69
2020/12/19 04:50:04;;;;;;;28.77;17.27;;;;;;;1.94;100.00;100388.67;1758235;81;21187;-69
2020/12/19 04:52:31;;;;;;;29.23;16.95;;;;;;;1.98;99.83;100388.03;1764142;81;21170;-70
2020/12/19 04:55:00;;;;;;;29.10;17.73;;;;;;;1.99;99.49;100390.20;1755654;81;21166;-70
2020/12/19 04:57:28;;;;;;;29.72;17.27;;;;;;;2.01;99.76;100386.59;1754075;81;21580;-69
2020/12/19 04:59:55;;;;;;;27.32;16.82;;;;;;;2.04;99.73;100389.05;1699891;83;21209;-69
2020/12/19 05:02:23;;;;;;;29.48;17.23;;;;;;;2.06;99.51;100384.61;1704045;84;21172;-69
2020/12/19 05:04:52;;;;;;;25.62;16.27;;;;;;;2.06;98.88;100386.37;1750557;81;21171;-69
2020/12/19 05:07:22;;;;;;;27.62;16.12;;;;;;;2.02;98.75;100386.13;1746241;81;21172;-70
2020/12/19 05:09:51;;;;;;;25.82;15.15;;;;;;;2.00;98.74;100387.53;1720330;83;21186;-70
2020/12/19 05:12:19;;;;;;;26.80;15.88;;;;;;;2.02;98.37;100389.59;1697629;83;21197;-69
2020/12/19 05:14:46;;;;;;;24.50;15.35;;;;;;;2.02;98.22;100390.91;1722545;83;21169;-69
2020/12/19 05:17:15;;;;;;;24.43;15.00;;;;;;;2.01;98.53;100388.36;1668094;83;21603;-69
2020/12/19 05:19:43;;;;;;;25.60;15.72;;;;;;;2.02;98.46;100389.59;1697693;83;21340;-69
2020/12/19 05:22:14;;;;;;;26.17;15.93;;;;;;;2.02;98.23;100390.91;1724909;82;21174;-70
2020/12/19 05:24:43;;;;;;;25.02;15.55;;;;;;;2.00;98.18;100393.18;1732041;81;21552;-69
2020/12/19 05:27:10;;;;;;;21.23;13.60;;;;;;;2.01;98.20;100393.11;1734112;81;21588;-70
2020/12/19 05:29:38;;;;;;;20.02;12.65;;;;;;;2.05;97.86;100393.80;1729983;81;21250;-70
2020/12/19 05:32:05;;;;;;;21.40;13.43;;;;;;;2.07;97.79;100395.41;1753858;81;21159;-69
2020/12/19 05:34:33;;;;;;;22.20;13.62;;;;;;;2.05;97.61;100393.34;1751049;81;21328;-70
2020/12/19 05:37:01;;;;;;;21.73;14.20;;;;;;;2.08;97.81;100392.36;1730567;81;21159;-70
2020/12/19 05:39:32;;;;;;;22.93;14.40;;;;;;;2.06;97.15;100392.91;1728993;81;21191;-70
2020/12/19 05:42:00;;;;;;;25.08;15.65;;;;;;;2.04;97.12;100394.71;1712047;83;21147;-69
2020/12/19 05:44:27;;;;;;;26.60;14.93;;;;;;;1.99;96.96;100398.03;1714842;83;21591;-69
2020/12/19 05:46:55;;;;;;;27.05;14.43;;;;;;;1.95;97.09;100406.47;1751163;81;21301;-69
2020/12/19 05:49:23;;;;;;;26.55;15.38;;;;;;;1.91;97.32;100403.63;1753457;81;21182;-69
2020/12/19 05:51:50;;;;;;;24.60;15.13;;;;;;;1.88;97.53;100403.77;1734260;81;21808;-69
2020/12/19 05:54:18;;;;;;;23.85;15.03;;;;;;;1.85;97.77;100407.82;1753698;81;21170;-69
2020/12/19 05:56:48;;;;;;;25.52;16.00;;;;;;;1.81;98.21;100408.89;1759150;81;21545;-70
2020/12/19 05:59:18;;;;;;;25.62;15.13;;;;;;;1.78;98.34;100410.34;1755652;81;21171;-69
2020/12/19 06:01:49;;;;;;;28.32;15.80;;;;;;;1.77;98.77;100420.41;1756486;81;21174;-70
2020/12/19 06:04:17;;;;;;;26.25;16.15;;;;;;;1.74;98.71;100424.84;1761532;81;21345;-70
2020/12/19 06:06:46;;;;;;;25.72;16.15;;;;;;;1.72;98.87;100425.38;1753763;81;21305;-69
2020/12/19 06:09:14;;;;;;;24.75;15.15;;;;;;;1.71;99.09;100422.84;1762721;81;21166;-70
2020/12/19 06:11:54;;;;;;;28.38;16.97;;;;;;;1.67;99.50;100428.66;1762968;81;21139;-70
2020/12/19 06:14:22;;;;;;;27.95;16.50;;;;;;;1.60;99.90;100429.03;1732885;81;21218;-69
2020/12/19 06:16:54;;;;;;;28.32;16.93;;;;;;;1.58;100.00;100434.31;1753603;81;21207;-70
2020/12/19 06:19:23;;;;;;;;;;;;;;;1.62;100.00;100442.37;1735636;81;21162;-70
2020/12/19 06:21:53;;;;;;;27.17;16.32;;;;;;;1.64;100.00;100452.27;1758133;81;20138;-69
2020/12/19 06:24:45;;;;;;;26.68;16.27;;;;;;;1.65;100.00;100453.13;1763865;81;21396;-69
2020/12/19 06:27:28;;;;;;;28.45;17.10;;;;;;;1.67;100.00;100451.30;1756483;81;21159;-69
2020/12/19 06:29:55;;;;;;;29.18;17.48;;;;;;;1.69;100.00;100458.58;1750388;81;21139;-69
2020/12/19 06:32:26;;;;;;;30.60;18.37;;;;;;;1.68;100.00;100460.79;1729760;81;21333;-69
2020/12/19 06:35:09;;;;;;;30.02;17.25;;;;;;;1.65;100.00;100472.22;1760244;81;21735;-70
2020/12/19 06:37:41;;;;;;;28.55;17.25;;;;;;;1.70;100.00;100470.69;1751164;81;21309;-69
2020/12/19 06:40:15;;;;;;;29.33;17.50;;;;;;;1.77;100.00;100473.86;1758929;81;21127;-69
2020/12/19 06:42:46;;;;;;;29.37;16.75;;;;;;;1.79;100.00;100471.56;1760908;81;21147;-69
2020/12/19 06:45:27;;;;;;;32.93;18.48;;;;;;;1.84;100.00;100476.11;1753304;81;21160;-69
2020/12/19 06:47:56;;;;;;;32.53;18.92;;;;;;;1.83;100.00;100486.61;1752930;81;21155;-70
2020/12/19 06:50:24;;;;;;;34.48;19.17;;;;;;;1.83;100.00;100486.61;1757782;81;21191;-70
2020/12/19 06:52:58;;;;;;;32.75;18.20;;;;;;;1.89;100.00;100487.61;1756186;81;21187;-70
2020/12/19 06:55:29;;;;;;;35.00;19.12;;;;;;;1.90;100.00;100481.49;1758162;81;21180;-69
2020/12/19 06:57:58;;;;;;;32.85;18.55;;;;;;;1.91;100.00;100488.41;1758846;81;21587;-70
2020/12/19 07:00:31;;;;;;;31.05;18.02;;;;;;;1.92;100.00;100485.70;1755989;81;21172;-70
2020/12/19 07:03:02;;;;;;;33.25;19.30;;;;;;;1.92;100.00;100483.56;1762313;81;21191;-69
2020/12/19 07:05:35;;;;;;;31.30;18.27;;;;;;;1.92;100.00;100487.01;1728699;81;21116;-69
2020/12/19 07:08:20;;;;;;;33.28;18.82;;;;;;;1.94;100.00;100484.33;1756666;81;21216;-69
2020/12/19 07:10:48;;;;;;;30.08;16.40;;;;;;;1.98;100.00;100490.25;1763930;81;21139;-69
2020/12/19 07:13:16;;;;;;;34.25;17.87;;;;;;;1.99;99.95;100482.36;1733488;81;21294;-70
2020/12/19 07:15:48;;;;;;;31.17;16.93;;;;;;;1.92;100.00;100482.26;1733115;81;21182;-69
2020/12/19 07:18:32;;;;;;;31.40;17.23;;;;;;;1.98;100.00;100483.27;1753207;81;21242;-69
2020/12/19 07:21:04;;;;;;;29.77;17.07;;;;;;;1.98;100.00;100480.66;1761342;81;21186;-69
2020/12/19 07:23:35;;;;;;;37.40;18.82;;;;;;;2.00;100.00;100485.36;1760721;81;21317;-69
2020/12/19 07:26:03;;;;;;;36.45;19.02;;;;;;;2.03;100.00;100483.05;1758910;81;21173;-70
2020/12/19 07:28:31;;;;;;;32.13;18.40;;;;;;;2.07;100.00;100478.06;1763289;81;21611;-70
2020/12/19 07:31:00;;;;;;;32.60;18.42;;;;;;;2.12;100.00;100482.61;1728434;81;21159;-70
2020/12/19 07:33:28;;;;;;;35.33;19.32;;;;;;;2.20;100.00;100486.98;1763035;81;21301;-70
2020/12/19 07:35:56;;;;;;;27.70;15.98;;;;;;;2.27;100.00;100482.33;1753244;81;21292;-70
2020/12/19 07:38:23;;;;;;;26.48;14.90;;;;;;;2.30;99.50;100479.11;1731454;81;21175;-70
2020/12/19 07:40:56;;;;;;;32.45;17.67;;;;;;;2.28;99.27;100478.77;1757190;81;21162;-69
2020/12/19 07:43:26;;;;;;;33.83;18.70;;;;;;;2.26;99.23;100476.70;1757650;81;21175;-70
2020/12/19 07:45:57;;;;;;;27.73;16.37;;;;;;;2.27;99.67;100482.33;1756080;81;21159;-70
2020/12/19 07:48:25;;;;;;;28.55;16.70;;;;;;;2.31;99.64;100477.33;1729081;81;21166;-70
2020/12/19 07:50:52;;;;;;;29.60;17.70;;;;;;;2.30;99.31;100479.54;1748904;81;21628;-69
2020/12/19 07:53:20;;;;;;;31.80;18.23;;;;;;;2.27;99.31;100483.16;1720429;83;21177;-70
2020/12/19 07:55:50;;;;;;;27.70;16.27;;;;;;;2.25;99.22;100481.09;1693039;83;21599;-70
2020/12/19 07:58:21;;;;;;;29.37;17.05;;;;;;;2.29;99.71;100488.31;1761061;81;21608;-70
2020/12/19 08:00:49;;;;;;;32.80;19.00;;;;;;;2.31;99.69;100489.91;1755788;81;21262;-70
2020/12/19 08:03:17;;;;;;;34.27;19.80;;;;;;;2.33;99.49;100498.98;1757817;81;21194;-70
2020/12/19 08:05:44;;;;;;;27.67;17.02;;;;;;;2.33;99.45;100493.29;1749627;81;21167;-70
2020/12/19 08:08:12;;;;;;;30.92;18.12;;;;;;;2.34;99.55;100494.16;1679591;81;21226;-70
2020/12/19 08:10:41;;;;;;;34.98;19.50;;;;;;;2.35;99.21;100497.61;1762709;81;21559;-70
2020/12/19 08:13:11;;;;;;;33.85;20.60;;;;;;;2.38;99.27;100498.30;1757830;81;21218;-70
2020/12/19 08:15:39;;;;;;;34.05;20.23;;;;;;;2.42;99.28;100498.53;1749035;81;21175;-70
2020/12/19 08:18:09;;;;;;;29.90;18.23;;;;;;;2.49;99.36;100498.61;1751804;81;21174;-70
2020/12/19 08:20:37;;;;;;;31.82;18.40;;;;;;;2.55;99.03;100494.02;1729330;81;21163;-70
2020/12/19 08:23:07;;;;;;;34.35;19.95;;;;;;;2.57;98.31;100498.22;1757590;81;22671;-70
2020/12/19 08:25:37;;;;;;;30.85;19.77;;;;;;;2.51;98.06;100502.45;1758612;81;21568;-70
2020/12/19 08:28:05;;;;;;;32.15;19.67;;;;;;;2.50;98.05;100500.28;1760470;81;21174;-70
2020/12/19 08:30:33;;;;;;;32.10;18.57;;;;;;;2.51;98.25;100499.38;1762321;81;21343;-70
2020/12/19 08:33:06;;;;;;;33.80;20.57;;;;;;;2.53;98.10;100492.31;1755873;81;21167;-70
2020/12/19 08:35:41;;;;;;;34.35;20.25;;;;;;;2.55;98.27;100495.32;1760562;81;21340;-70
2020/12/19 08:38:24;;;;;;;29.60;18.52;;;;;;;2.57;98.00;100489.55;1760035;81;21159;-71
2020/12/19 08:40:53;;;;;;;31.77;19.48;;;;;;;2.53;97.89;100497.53;1755977;81;21155;-70
2020/12/19 08:43:33;;;;;;;28.40;16.82;;;;;;;2.57;98.50;100494.31;1764496;81;21216;-70
2020/12/19 08:46:14;;;;;;;32.42;19.23;;;;;;;2.63;97.49;100497.07;1753129;81;21576;-70
2020/12/19 08:48:42;;;;;;;34.73;20.45;;;;;;;2.61;97.46;100492.39;1760915;81;21186;-70
2020/12/19 08:51:14;;;;;;;34.58;20.12;;;;;;;2.64;97.80;100489.16;1762809;81;21293;-70
2020/12/19 08:53:41;;;;;;;32.10;19.50;;;;;;;2.71;97.91;100489.68;1760248;81;21579;-70
2020/12/19 08:56:17;;;;;;;33.05;19.42;;;;;;;2.75;97.51;100479.92;1763314;81;21595;-70
2020/12/19 08:58:55;;;;;;;28.17;17.25;;;;;;;2.77;97.14;100482.86;1753123;81;21219;-70
2020/12/19 09:01:23;;;;;;;29.42;17.70;;;;;;;2.77;96.65;100483.30;1758228;81;21171;-70
2020/12/19 09:03:52;;;;;;;30.50;17.95;;;;;;;2.74;96.52;100475.16;1756285;81;21175;-70
2020/12/19 09:06:20;;;;;;;32.05;18.55;;;;;;;2.74;96.57;100467.33;1749503;81;21132;-71
2020/12/19 09:08:48;;;;;;;29.70;18.73;;;;;;;2.71;96.70;100463.12;1758548;81;21139;-71
2020/12/19 09:11:28;;;;;;;29.65;18.25;;;;;;;2.71;97.08;100459.64;1763334;81;21166;-71
2020/12/19 09:14:09;;;;;;;28.02;17.20;;;;;;;2.77;97.50;100454.56;1753638;81;21187;-70
2020/12/19 09:16:49;;;;;;;27.62;17.55;;;;;;;2.84;96.94;100460.72;1763957;81;21206;-70
2020/12/19 09:19:18;;;;;;;27.75;15.88;;;;;;;2.87;96.67;100455.31;1763097;81;21313;-71
2020/12/19 09:22:00;;;;;;;26.95;16.93;;;;;;;2.97;96.58;100459.59;1751139;81;21314;-70
2020/12/19 09:24:27;;;;;;;26.87;17.80;;;;;;;3.08;96.01;100463.80;1760396;81;21600;-71
2020/12/19 09:26:55;;;;;;;28.10;18.12;;;;;;;3.18;95.48;100467.23;1729771;81;21163;-71
2020/12/19 09:29:23;;;;;;;28.98;17.92;;;;;;;3.26;95.43;100462.45;1749063;81;21179;-71
2020/12/19 09:31:51;;;;;;;29.48;18.10;;;;;;;3.34;94.97;100459.42;1713393;83;21209;-70
2020/12/19 09:34:18;;;;;;;23.20;15.80;;;;;;;3.43;94.55;100457.62;1753729;81;21179;-70
2020/12/19 09:36:46;;;;;;;29.85;19.55;;;;;;;3.54;93.84;100455.73;1720299;83;21617;-70
2020/12/19 09:39:14;;;;;;;29.27;18.67;;;;;;;3.55;92.38;100451.70;1749221;81;21576;-71
2020/12/19 09:41:41;;;;;;;28.90;20.00;;;;;;;3.60;92.59;100452.77;1749139;81;21421;-71
2020/12/19 09:44:10;;;;;;;31.17;19.02;;;;;;;3.63;92.32;100456.53;1763070;81;21308;-71
2020/12/19 09:46:38;;;;;;;30.77;20.12;;;;;;;3.65;92.12;100449.45;1755572;81;21179;-71
2020/12/19 09:49:06;;;;;;;32.67;21.10;;;;;;;3.63;91.60;100457.37;1757268;81;21635;-71
2020/12/19 09:51:34;;;;;;;31.82;20.65;;;;;;;3.62;92.06;100459.59;1762228;81;21559;-71
2020/12/19 09:54:02;;;;;;;31.60;21.07;;;;;;;3.60;91.46;100465.38;1712673;83;21610;-71
2020/12/19 09:56:38;;;;;;;30.20;18.62;;;;;;;3.55;91.45;100453.00;1752944;81;21178;-70
2020/12/19 09:59:05;;;;;;;29.77;19.40;;;;;;;3.55;91.69;100458.23;1754268;81;21199;-71
2020/12/19 10:01:33;;;;;;;33.42;20.15;;;;;;;3.52;91.54;100454.94;1756401;81;21320;-71
2020/12/19 10:04:01;;;;;;;30.17;19.57;;;;;;;3.53;91.89;100456.17;1755949;81;21179;-71
2020/12/19 10:06:29;;;;;;;32.58;19.85;;;;;;;3.53;91.92;100454.87;1762816;81;21223;-71
2020/12/19 10:08:56;;;;;;;31.70;20.92;;;;;;;3.52;91.81;100450.58;1754209;81;21750;-71
2020/12/19 10:11:25;;;;;;;33.75;21.10;;;;;;;3.51;91.81;100456.72;1732855;81;21166;-70
2020/12/19 10:13:52;;;;;;;33.98;22.27;;;;;;;3.47;91.90;100453.43;1763356;81;21584;-70
2020/12/19 10:16:20;;;;;;;38.73;23.18;;;;;;;3.45;92.13;100456.59;1751200;81;21302;-71
2020/12/19 10:18:47;;;;;;;42.03;24.90;;;;;;;3.42;92.00;100454.61;1758226;81;21175;-71
2020/12/19 10:21:14;;;;;;;38.83;24.23;;;;;;;3.39;92.33;100454.80;1755571;81;21155;-71
2020/12/19 10:23:42;;;;;;;40.65;24.70;;;;;;;3.37;92.51;100455.34;1752029;81;21160;-71
2020/12/19 10:26:12;;;;;;;44.67;26.25;;;;;;;3.35;93.00;100455.42;1757062;81;21313;-71
2020/12/19 10:28:40;;;;;;;38.63;24.35;;;;;;;3.34;93.28;100455.50;1749028;81;21167;-70
2020/12/19 10:31:08;;;;;;;41.75;25.65;;;;;;;3.32;93.41;100454.27;1719302;83;21198;-70
2020/12/19 10:33:36;;;;;;;38.02;23.00;;;;;;;3.28;93.43;100453.59;1726842;83;21188;-70
2020/12/19 10:36:03;;;;;;;41.88;24.90;;;;;;;3.25;93.69;100456.36;1722557;83;21182;-71
2020/12/19 10:38:31;;;;;;;38.90;24.25;;;;;;;3.23;93.85;100455.59;1726644;83;21182;-71
2020/12/19 10:40:59;;;;;;;42.53;25.10;;;;;;;3.24;94.05;100454.69;1722715;83;21182;-70
2020/12/19 10:43:26;;;;;;;40.65;24.12;;;;;;;3.24;94.51;100461.22;1731892;81;21151;-70
2020/12/19 10:45:54;;;;;;;37.17;22.22;;;;;;;3.25;94.76;100456.36;1761521;81;21722;-70
2020/12/19 10:48:21;;;;;;;40.38;25.37;;;;;;;3.27;94.94;100454.97;1754634;81;21170;-70
2020/12/19 10:50:50;;;;;;;33.30;20.70;;;;;;;3.27;95.05;100459.77;1753779;81;21199;-70
2020/12/19 10:53:17;;;;;;;43.92;22.80;;;;;;;3.28;95.05;100452.28;1707220;83;21214;-71
2020/12/19 10:55:45;;;;;;;35.63;22.17;;;;;;;3.26;94.69;100454.14;1760386;81;21344;-69
2020/12/19 10:58:13;;;;;;;37.55;23.12;;;;;;;3.27;94.95;100441.91;1760994;80;21289;-72
2020/12/19 11:00:40;;;;;;;38.73;23.50;;;;;;;3.30;95.12;100443.05;1762889;81;21195;-70
2020/12/19 11:03:08;;;;;;;39.25;24.12;;;;;;;3.34;95.33;100439.81;1758626;81;21135;-69
2020/12/19 11:05:40;;;;;;;38.08;23.65;;;;;;;3.36;94.89;100437.95;1762193;81;21170;-71
2020/12/19 11:08:08;;;;;;;35.38;22.50;;;;;;;3.38;95.00;100438.71;1755496;81;21230;-70
2020/12/19 11:10:35;;;;;;;38.17;22.67;;;;;;;3.41;94.67;100438.08;1762665;80;21624;-70
2020/12/19 11:13:03;;;;;;;37.53;23.57;;;;;;;3.45;94.43;100435.67;1756282;81;21197;-70
2020/12/19 11:15:31;;;;;;;36.88;22.77;;;;;;;3.52;94.45;100441.86;1685772;83;21190;-70
2020/12/19 11:17:59;;;;;;;34.03;22.02;;;;;;;3.59;93.90;100440.61;1720615;83;21177;-70
2020/12/19 11:20:28;;;;;;;34.90;23.05;;;;;;;3.63;93.45;100440.84;1752714;81;21316;-70
2020/12/19 11:22:55;;;;;;;35.50;23.50;;;;;;;3.68;93.16;100434.87;1756390;81;21311;-71